Time;durP1;ratioP1;P1;durP2;ratioP2;P2;SDS_P1;SDS_P2;PMS_P1;PMS_P2;Temp;Humidity;BMP_temperature;BMP_pressure;BME280_temperature;BME280_humidity;BME280_pressure;Samples;Min_cycle;Max_cycle;Signal;HPM_P1;HPM_P2
2023/08/01 00:01:19;;;;;;;3.85;2.97;;;;;;;27.56;56.89;100339.19;5071434;28;20044;-52
2023/08/01 00:03:46;;;;;;;4.60;2.80;;;;;;;27.57;56.97;100326.44;5070832;28;20045;-51
2023/08/01 00:06:14;;;;;;;5.13;3.03;;;;;;;27.58;56.65;100322.66;5070011;28;20048;-53
2023/08/01 00:08:41;;;;;;;4.93;2.92;;;;;;;27.58;56.74;100322.66;5072515;28;20399;-58
2023/08/01 00:11:09;;;;;;;3.40;2.67;;;;;;;27.58;56.65;100320.78;5069621;28;20048;-58
2023/08/01 00:13:37;;;;;;;4.35;3.30;;;;;;;27.59;56.55;100313.50;5068948;28;20057;-58
2023/08/01 00:16:04;;;;;;;4.45;2.80;;;;;;;27.59;56.42;100306.16;5072044;28;20053;-58
2023/08/01 00:18:35;;;;;;;5.18;3.25;;;;;;;27.60;56.61;100309.72;5069668;28;20055;-51
2023/08/01 00:21:05;;;;;;;5.45;3.38;;;;;;;27.60;56.38;100305.13;5070959;28;20048;-51
2023/08/01 00:23:32;;;;;;;4.25;3.10;;;;;;;27.60;56.58;100302.41;5071013;28;20072;-52
2023/08/01 00:26:00;;;;;;;5.68;2.80;;;;;;;27.62;56.51;100294.03;5070416;28;20049;-50
2023/08/01 00:28:27;;;;;;;5.03;2.97;;;;;;;27.63;56.64;100297.59;5072329;28;20104;-58
2023/08/01 00:31:08;;;;;;;4.07;3.00;;;;;;;27.63;56.45;100284.00;5068439;28;20443;-58
2023/08/01 00:33:36;;;;;;;5.35;3.00;;;;;;;27.63;56.18;100284.00;5060393;28;20036;-58
2023/08/01 00:36:08;;;;;;;4.45;2.83;;;;;;;27.65;56.27;100287.38;5069776;28;20044;-58
2023/08/01 00:38:36;;;;;;;;;;;;;;;27.63;56.18;100282.13;5072120;28;20420;-50
2023/08/01 00:41:04;;;;;;;3.90;2.60;;;;;;;27.64;56.20;100274.81;5069521;28;19943;-53
2023/08/01 00:43:31;;;;;;;5.20;3.22;;;;;;;27.65;56.33;100280.03;5068458;28;20446;-51
2023/08/01 00:46:03;;;;;;;3.88;2.92;;;;;;;27.66;56.61;100275.44;5059658;28;20497;-48
2023/08/01 00:48:31;;;;;;;4.82;3.10;;;;;;;27.65;56.15;100269.16;5068181;28;20040;-58
2023/08/01 00:51:00;;;;;;;4.25;2.72;;;;;;;27.65;56.50;100263.72;5065394;28;20049;-58
2023/08/01 00:53:28;;;;;;;4.95;3.22;;;;;;;27.66;56.20;100265.41;5063213;28;20408;-58
2023/08/01 00:55:57;;;;;;;4.38;2.60;;;;;;;27.67;56.19;100269.81;5071217;28;20052;-58
2023/08/01 00:58:25;;;;;;;4.38;2.80;;;;;;;27.66;56.19;100264.56;5073614;28;20049;-58
2023/08/01 01:00:55;;;;;;;4.30;2.47;;;;;;;27.67;56.23;100261.66;5074055;28;20068;-58
2023/08/01 01:03:23;;;;;;;4.43;3.03;;;;;;;27.67;56.18;100250.78;5072315;28;20504;-58
2023/08/01 01:06:18;;;;;;;3.60;2.65;;;;;;;27.68;56.50;100248.91;5075449;28;20040;-58
2023/08/01 01:08:46;;;;;;;3.95;2.90;;;;;;;27.67;56.08;100245.34;5068250;28;20048;-58
2023/08/01 01:11:13;;;;;;;3.60;2.80;;;;;;;27.68;56.32;100246.19;5065549;28;20522;-58
2023/08/01 01:13:41;;;;;;;3.83;2.80;;;;;;;27.69;56.34;100243.25;5070930;28;20053;-58
2023/08/01 01:16:09;;;;;;;3.72;2.78;;;;;;;27.69;55.94;100236.97;5075404;28;20048;-58
2023/08/01 01:18:36;;;;;;;4.35;3.25;;;;;;;27.69;56.21;100236.97;5069652;28;20075;-58
2023/08/01 01:21:04;;;;;;;3.65;2.67;;;;;;;27.70;56.30;100233.22;5075099;28;20511;-58
2023/08/01 01:23:33;;;;;;;3.42;2.72;;;;;;;27.69;56.38;100229.66;5072325;28;20637;-58
2023/08/01 01:26:02;;;;;;;3.92;2.63;;;;;;;27.70;56.26;100227.78;5072805;28;20055;-58
2023/08/01 01:28:31;;;;;;;3.50;2.60;;;;;;;27.71;56.13;100226.72;5074717;28;20041;-58
2023/08/01 01:30:59;;;;;;;3.70;2.67;;;;;;;27.72;56.01;100228.41;5072376;28;20048;-58
2023/08/01 01:33:26;;;;;;;4.25;2.65;;;;;;;27.71;55.91;100229.44;5073298;28;20060;-58
2023/08/01 01:35:54;;;;;;;3.53;2.53;;;;;;;27.71;56.14;100229.44;5071925;28;20044;-58
2023/08/01 01:38:21;;;;;;;3.83;2.50;;;;;;;27.72;56.04;100222.97;5070033;28;20047;-50
2023/08/01 01:40:49;;;;;;;3.92;2.88;;;;;;;27.72;56.26;100222.97;5064072;28;20056;-51
2023/08/01 01:43:16;;;;;;;4.22;2.75;;;;;;;27.72;55.73;100214.81;5068576;28;20055;-50
2023/08/01 01:45:44;;;;;;;3.40;2.60;;;;;;;27.72;56.16;100218.38;5070587;28;20595;-50
2023/08/01 01:48:11;;;;;;;4.30;2.70;;;;;;;27.72;55.83;100215.66;5069823;28;20048;-58
2023/08/01 01:50:39;;;;;;;4.78;2.70;;;;;;;27.73;56.10;100222.81;5064032;28;20413;-51
2023/08/01 01:53:06;;;;;;;4.28;3.25;;;;;;;27.74;56.16;100218.19;5067896;28;20053;-53
2023/08/01 01:55:34;;;;;;;4.20;3.20;;;;;;;27.73;56.16;100214.63;5071640;28;20052;-53
2023/08/01 01:58:02;;;;;;;3.50;2.50;;;;;;;27.74;56.06;100215.47;5069784;28;20060;-58
2023/08/01 02:00:29;;;;;;;3.95;2.72;;;;;;;27.73;55.74;100206.47;5073045;28;20071;-58
2023/08/01 02:02:57;;;;;;;4.30;3.05;;;;;;;27.74;56.05;100216.31;5072085;28;20044;-58
2023/08/01 02:05:24;;;;;;;4.93;2.55;;;;;;;27.74;55.93;100208.16;5057694;28;20623;-58
2023/08/01 02:07:51;;;;;;;5.07;3.22;;;;;;;27.75;55.77;100211.72;5070989;28;20052;-58
2023/08/01 02:10:19;;;;;;;4.55;3.03;;;;;;;27.75;55.88;100206.25;5063562;28;20044;-58
2023/08/01 02:12:46;;;;;;;3.60;2.60;;;;;;;27.75;56.29;100209.84;5067597;28;20052;-58
2023/08/01 02:15:14;;;;;;;4.10;2.85;;;;;;;27.75;55.92;100207.13;5071445;28;20044;-58
2023/08/01 02:17:41;;;;;;;4.20;2.85;;;;;;;27.75;56.27;100200.81;5070926;28;20041;-58
2023/08/01 02:20:09;;;;;;;3.90;3.03;;;;;;;27.75;55.87;100193.53;5063298;28;20045;-58
2023/08/01 02:22:36;;;;;;;3.97;2.88;;;;;;;27.76;55.80;100191.66;5069125;28;20056;-58
2023/08/01 02:25:04;;;;;;;3.75;2.60;;;;;;;27.75;55.91;100193.53;5067184;28;20048;-58
2023/08/01 02:27:31;;;;;;;4.63;2.90;;;;;;;27.76;56.01;100191.66;5070694;28;20508;-52
2023/08/01 02:29:58;;;;;;;3.10;2.42;;;;;;;27.77;55.98;100196.03;5061702;28;20511;-53
2023/08/01 02:32:26;;;;;;;4.05;2.75;;;;;;;27.76;56.08;100189.75;5068318;28;20045;-51
2023/08/01 02:34:56;;;;;;;4.45;2.95;;;;;;;27.76;56.16;100188.94;5071117;28;20063;-52
2023/08/01 02:37:23;;;;;;;5.07;3.08;;;;;;;27.77;55.95;100185.16;5059492;28;20063;-58
2023/08/01 02:39:51;;;;;;;4.22;2.60;;;;;;;27.77;56.33;100186.00;5071064;28;20040;-58
2023/08/01 02:42:18;;;;;;;3.83;2.67;;;;;;;27.77;56.02;100185.16;5058731;28;20056;-58
2023/08/01 02:44:46;;;;;;;3.20;2.70;;;;;;;27.77;56.14;100183.28;5069687;28;20049;-58
2023/08/01 02:47:13;;;;;;;3.63;2.75;;;;;;;27.77;56.27;100182.44;5070184;28;20037;-49
2023/08/01 02:49:40;;;;;;;5.28;2.92;;;;;;;27.77;56.08;100177.00;5073366;28;20037;-53
2023/08/01 02:52:08;;;;;;;5.15;3.00;;;;;;;27.77;56.05;100174.28;5069502;28;20063;-50
2023/08/01 02:54:35;;;;;;;3.53;2.42;;;;;;;27.77;56.27;100179.72;5070374;28;20052;-50
2023/08/01 02:57:03;;;;;;;3.83;2.70;;;;;;;27.77;56.26;100186.00;5072873;28;20044;-58
2023/08/01 02:59:32;;;;;;;3.60;3.00;;;;;;;27.78;56.14;100184.09;5069176;28;20041;-58
2023/08/01 03:02:01;;;;;;;3.75;2.75;;;;;;;27.78;56.21;100184.94;5073082;28;20044;-58
2023/08/01 03:04:28;;;;;;;3.97;3.10;;;;;;;27.77;56.14;100183.28;5070064;28;20045;-58
2023/08/01 03:07:13;;;;;;;4.43;2.65;;;;;;;27.79;56.12;100193.94;5063153;28;20473;-53
2023/08/01 03:09:42;;;;;;;3.40;2.30;;;;;;;27.78;56.11;100203.16;5070166;28;20053;-53
2023/08/01 03:12:10;;;;;;;3.80;2.63;;;;;;;27.79;56.34;100199.38;5057050;28;20053;-53
2023/08/01 03:14:37;;;;;;;4.22;2.58;;;;;;;27.78;56.26;100197.72;5067618;28;20057;-52
2023/08/01 03:17:05;;;;;;;3.80;3.03;;;;;;;27.79;56.10;100199.38;5062116;28;20064;-53
2023/08/01 03:19:32;;;;;;;4.43;3.25;;;;;;;27.79;56.41;100204.81;5067426;28;20488;-51
2023/08/01 03:22:00;;;;;;;4.35;3.10;;;;;;;27.79;56.38;100193.94;5070988;28;20051;-52
2023/08/01 03:24:27;;;;;;;4.70;3.53;;;;;;;27.79;56.10;100193.94;5065772;28;20053;-50
2023/08/01 03:26:55;;;;;;;6.60;3.50;;;;;;;27.79;56.08;100185.78;5061885;28;20053;-58
2023/08/01 03:29:22;;;;;;;4.13;3.15;;;;;;;27.78;55.98;100178.66;5068961;28;20052;-58
2023/08/01 03:31:49;;;;;;;3.92;2.88;;;;;;;27.75;55.81;100185.38;5069815;28;20481;-58
2023/08/01 03:34:17;;;;;;;4.03;3.13;;;;;;;27.74;55.26;100183.66;5071003;28;20064;-58
2023/08/01 03:36:44;;;;;;;4.82;3.58;;;;;;;27.71;54.48;100169.59;5070000;28;20056;-58
2023/08/01 03:39:12;;;;;;;4.15;3.00;;;;;;;27.70;54.44;100173.38;5073311;28;20051;-58
2023/08/01 03:41:39;;;;;;;4.63;3.03;;;;;;;27.67;54.22;100171.06;5069834;28;20040;-58
2023/08/01 03:44:07;;;;;;;4.15;2.83;;;;;;;27.66;53.83;100163.94;5070824;28;20049;-57
2023/08/01 03:46:34;;;;;;;4.68;2.80;;;;;;;27.64;54.18;100176.94;5073224;28;20054;-59
2023/08/01 03:49:01;;;;;;;4.72;3.33;;;;;;;27.60;54.11;100174.59;5069759;28;20044;-60
2023/08/01 03:51:29;;;;;;;5.85;3.22;;;;;;;27.59;53.96;100166.66;5071084;28;20048;-61
2023/08/01 03:53:56;;;;;;;4.25;3.05;;;;;;;27.58;54.31;100167.69;5069874;28;20052;-60
2023/08/01 03:56:42;;;;;;;4.60;3.03;;;;;;;27.57;53.94;100166.00;5068883;28;20052;-60
2023/08/01 03:59:15;;;;;;;4.75;2.85;;;;;;;27.55;53.95;100166.22;5072233;28;20059;-61
2023/08/01 04:01:42;;;;;;;4.20;3.07;;;;;;;27.55;53.78;100162.66;5070250;28;20053;-61
2023/08/01 04:04:10;;;;;;;4.65;3.10;;;;;;;27.52;53.30;100154.91;5070213;28;20055;-61
2023/08/01 04:06:37;;;;;;;4.80;3.03;;;;;;;27.44;53.45;100139.59;5058754;28;20051;-59
2023/08/01 04:09:06;;;;;;;4.32;3.20;;;;;;;27.33;53.08;100126.56;5068811;28;20420;-61
2023/08/01 04:11:34;;;;;;;3.78;2.97;;;;;;;27.18;52.60;100118.53;5069362;28;20060;-60
2023/08/01 04:14:01;;;;;;;4.50;3.33;;;;;;;27.07;52.79;100111.78;5072293;28;20047;-60
2023/08/01 04:16:28;;;;;;;6.03;3.53;;;;;;;26.96;52.71;100115.06;5070013;28;20052;-60
2023/08/01 04:18:56;;;;;;;5.10;3.95;;;;;;;26.86;52.86;100115.44;5071162;28;20056;-57
2023/08/01 04:21:24;;;;;;;4.22;2.97;;;;;;;26.81;52.93;100130.63;5069594;28;20542;-57
2023/08/01 04:23:51;;;;;;;5.82;3.72;;;;;;;26.80;52.81;100121.63;5069374;28;20048;-57
2023/08/01 04:26:18;;;;;;;4.97;3.50;;;;;;;26.79;53.03;100122.69;5072297;28;20408;-57
2023/08/01 04:28:49;;;;;;;4.05;3.47;;;;;;;26.76;52.97;100114.09;5070949;28;20067;-57
2023/08/01 04:31:16;;;;;;;4.68;3.25;;;;;;;26.73;53.18;100118.03;5071169;28;20416;-57
2023/08/01 04:33:44;;;;;;;4.03;3.22;;;;;;;26.74;53.19;100119.72;5075708;28;20504;-58
2023/08/01 04:36:12;;;;;;;5.28;3.33;;;;;;;26.81;53.24;100130.63;5073579;28;20404;-57
2023/08/01 04:38:39;;;;;;;4.35;3.05;;;;;;;26.86;53.10;100122.75;5074282;28;20408;-58
2023/08/01 04:41:07;;;;;;;4.25;3.05;;;;;;;26.91;52.99;100120.25;5073804;28;20048;-58
2023/08/01 04:43:35;;;;;;;3.92;3.05;;;;;;;26.95;52.95;100132.41;5072979;28;20052;-58
2023/08/01 04:46:02;;;;;;;5.40;3.50;;;;;;;26.99;52.82;100141.84;5075528;28;20040;-58
2023/08/01 04:48:29;;;;;;;5.68;3.55;;;;;;;27.01;52.73;100134.31;5073008;28;20045;-60
2023/08/01 04:50:57;;;;;;;4.78;3.90;;;;;;;27.01;52.46;100131.59;5071971;28;20052;-61
2023/08/01 04:53:24;;;;;;;5.43;3.92;;;;;;;26.97;52.39;100129.47;5075583;28;20048;-61
2023/08/01 04:55:52;;;;;;;4.55;3.20;;;;;;;26.94;52.25;100122.59;5072666;28;20052;-62
2023/08/01 04:58:19;;;;;;;5.05;3.10;;;;;;;26.95;52.35;100118.00;5075400;28;20045;-60
2023/08/01 05:00:46;;;;;;;4.40;3.67;;;;;;;26.96;52.33;100112.34;5075105;28;20506;-62
2023/08/01 05:03:14;;;;;;;4.10;3.22;;;;;;;26.97;52.60;100119.44;5072521;28;20051;-61
2023/08/01 05:05:41;;;;;;;4.10;3.22;;;;;;;26.96;53.04;100120.50;5075310;28;20036;-60
2023/08/01 05:08:09;;;;;;;5.03;3.70;;;;;;;26.95;52.65;100128.84;5072372;28;20044;-60
2023/08/01 05:10:36;;;;;;;5.20;3.50;;;;;;;26.93;52.67;100123.59;5071602;28;20389;-62
2023/08/01 05:13:03;;;;;;;3.90;3.08;;;;;;;26.94;52.75;100133.44;5075282;28;20047;-60
2023/08/01 05:15:30;;;;;;;4.00;3.22;;;;;;;26.93;52.63;100122.75;5072301;28;20049;-61
2023/08/01 05:17:58;;;;;;;5.05;3.40;;;;;;;26.93;52.74;100115.44;5073773;28;20055;-58
2023/08/01 05:20:30;;;;;;;4.80;3.63;;;;;;;26.95;52.87;100110.66;5073156;28;20045;-58
2023/08/01 05:22:59;;;;;;;5.70;3.50;;;;;;;26.95;53.02;100104.41;5072427;28;20045;-58
2023/08/01 05:25:26;;;;;;;5.78;3.50;;;;;;;26.97;52.95;100102.31;5075234;28;20048;-58
2023/08/01 05:27:53;;;;;;;4.63;3.72;;;;;;;26.97;52.77;100097.72;5072574;28;20044;-60
2023/08/01 05:30:21;;;;;;;5.15;3.70;;;;;;;27.00;53.12;100089.16;5071566;28;20052;-60
2023/08/01 05:32:48;;;;;;;6.40;3.88;;;;;;;27.00;52.93;100089.16;5075086;28;20045;-61
2023/08/01 05:35:17;;;;;;;4.97;3.13;;;;;;;26.98;53.20;100083.13;5071719;28;20059;-61
2023/08/01 05:37:44;;;;;;;5.32;3.42;;;;;;;26.95;53.20;100079.97;5072727;28;20510;-58
2023/08/01 05:40:12;;;;;;;4.78;3.78;;;;;;;26.96;52.99;100082.47;5073265;28;20045;-58
2023/08/01 05:42:39;;;;;;;5.82;3.80;;;;;;;26.99;53.13;100081.22;5071691;28;20052;-58
2023/08/01 05:45:07;;;;;;;5.43;3.88;;;;;;;27.01;53.33;100079.13;5074402;28;20052;-58
2023/08/01 05:47:36;;;;;;;6.32;4.25;;;;;;;27.02;53.23;100087.09;5071989;28;20381;-60
2023/08/01 05:50:04;;;;;;;5.47;4.03;;;;;;;27.01;52.90;100098.16;5071376;28;20385;-61
2023/08/01 05:52:31;;;;;;;5.70;4.00;;;;;;;26.99;52.67;100101.09;5074463;28;20049;-61
2023/08/01 05:54:58;;;;;;;6.05;4.20;;;;;;;26.95;52.28;100096.25;5071867;28;20044;-61
2023/08/01 05:57:26;;;;;;;6.78;3.85;;;;;;;26.93;51.88;100091.00;5072709;28;20052;-58
2023/08/01 05:59:53;;;;;;;5.22;3.70;;;;;;;26.92;52.01;100094.75;5073444;28;20408;-58
2023/08/01 06:02:21;;;;;;;4.43;3.33;;;;;;;26.88;51.70;100094.31;5071861;28;20036;-58
2023/08/01 06:04:48;;;;;;;4.80;3.70;;;;;;;26.86;51.58;100080.13;5074129;28;20045;-58
2023/08/01 06:07:16;;;;;;;7.25;3.97;;;;;;;26.87;51.40;100091.81;5058531;28;20063;-61
2023/08/01 06:09:43;;;;;;;4.78;3.47;;;;;;;26.86;51.34;100101.00;5061690;28;20056;-61
2023/08/01 06:12:10;;;;;;;4.47;3.20;;;;;;;26.82;51.16;100094.31;5065298;28;20418;-61
2023/08/01 06:14:38;;;;;;;6.22;3.78;;;;;;;26.84;51.38;100084.06;5069993;28;20049;-61
2023/08/01 06:17:05;;;;;;;4.55;3.33;;;;;;;26.86;51.49;100076.56;5071955;28;20048;-60
2023/08/01 06:19:32;;;;;;;7.50;3.88;;;;;;;26.88;51.37;100067.16;5071155;28;20052;-60
2023/08/01 06:22:00;;;;;;;4.60;3.35;;;;;;;26.93;51.60;100076.59;5057845;28;20041;-61
2023/08/01 06:24:27;;;;;;;6.03;3.25;;;;;;;26.97;52.01;100070.56;5067378;28;20059;-61
2023/08/01 06:26:54;;;;;;;4.30;3.13;;;;;;;26.96;51.41;100068.88;5071013;28;20044;-58
2023/08/01 06:29:22;;;;;;;6.25;3.08;;;;;;;26.96;51.05;100066.16;5070277;28;20051;-58
2023/08/01 06:31:50;;;;;;;3.97;2.60;;;;;;;26.97;51.05;100061.56;5073814;28;20041;-58
2023/08/01 06:34:17;;;;;;;4.15;2.88;;;;;;;26.97;50.77;100065.13;5069868;28;20064;-58
2023/08/01 06:36:45;;;;;;;5.63;2.90;;;;;;;27.00;50.23;100063.88;5071366;28;20492;-58
2023/08/01 06:39:12;;;;;;;4.47;2.78;;;;;;;27.02;50.38;100059.06;5072718;28;20044;-58
2023/08/01 06:41:39;;;;;;;5.22;3.03;;;;;;;27.04;50.79;100079.59;5070864;28;20047;-58
2023/08/01 06:44:07;;;;;;;4.70;3.10;;;;;;;27.03;50.40;100079.78;5073512;28;20052;-58
2023/08/01 06:46:34;;;;;;;4.10;3.33;;;;;;;26.99;50.21;100075.81;5071003;28;20499;-60
2023/08/01 06:49:02;;;;;;;5.20;3.53;;;;;;;26.94;50.20;100065.53;5070084;28;20045;-61
2023/08/01 06:51:29;;;;;;;5.00;3.65;;;;;;;26.92;50.04;100059.47;5063096;28;20048;-61
2023/08/01 06:53:56;;;;;;;5.05;3.45;;;;;;;26.94;50.48;100054.69;5068333;28;20044;-61
2023/08/01 06:56:24;;;;;;;5.07;3.50;;;;;;;26.97;50.73;100053.41;5070821;28;20412;-61
2023/08/01 06:58:51;;;;;;;5.47;3.58;;;;;;;26.98;51.06;100046.94;5072603;28;20055;-61
2023/08/01 07:01:19;;;;;;;6.15;3.55;;;;;;;26.99;50.96;100041.31;5070561;28;20040;-61
2023/08/01 07:03:46;;;;;;;7.22;3.80;;;;;;;26.99;51.12;100046.75;5073283;28;20051;-61
2023/08/01 07:06:14;;;;;;;5.90;3.33;;;;;;;26.98;50.24;100047.81;5070713;28;20055;-61
2023/08/01 07:08:41;;;;;;;4.03;3.05;;;;;;;26.92;50.02;100053.19;5069598;28;20514;-58
2023/08/01 07:11:08;;;;;;;4.03;2.33;;;;;;;26.86;50.04;100042.09;5073239;28;20381;-58
2023/08/01 07:13:36;;;;;;;4.60;3.13;;;;;;;26.85;50.00;100045.00;5070291;28;20048;-58
2023/08/01 07:16:03;;;;;;;5.55;2.38;;;;;;;26.82;50.32;100042.69;5071033;28;20404;-58
2023/08/01 07:18:31;;;;;;;5.38;2.75;;;;;;;26.81;50.80;100055.41;5072029;28;20052;-58
2023/08/01 07:21:02;;;;;;;7.35;3.20;;;;;;;26.79;50.84;100052.06;5070103;28;20048;-58
2023/08/01 07:23:31;;;;;;;5.93;3.58;;;;;;;26.74;51.25;100053.69;5072827;28;20488;-58
2023/08/01 07:25:58;;;;;;;5.03;3.42;;;;;;;26.71;51.64;100054.13;5069803;28;20549;-58
2023/08/01 07:28:25;;;;;;;4.88;3.25;;;;;;;26.69;52.00;100062.44;5068567;28;20044;-61
2023/08/01 07:31:04;;;;;;;5.05;3.22;;;;;;;26.66;52.24;100054.72;5063833;28;20044;-61
2023/08/01 07:33:35;;;;;;;5.03;2.92;;;;;;;26.67;52.30;100056.38;5069658;28;20051;-62
2023/08/01 07:36:02;;;;;;;5.63;3.13;;;;;;;26.71;52.18;100054.13;5069381;28;20045;-57
2023/08/01 07:38:33;;;;;;;4.13;3.10;;;;;;;26.75;52.38;100055.41;5072903;28;20051;-60
2023/08/01 07:41:04;;;;;;;5.28;3.50;;;;;;;26.79;52.42;100056.69;5069761;28;20064;-60
2023/08/01 07:43:31;;;;;;;6.63;4.05;;;;;;;26.80;52.85;100061.06;5071007;28;20048;-60
2023/08/01 07:46:00;;;;;;;6.55;3.60;;;;;;;26.80;52.91;100064.59;5070888;28;20059;-63
2023/08/01 07:48:27;;;;;;;6.30;3.83;;;;;;;26.81;53.20;100069.00;5070215;28;20384;-63
2023/08/01 07:50:55;;;;;;;6.18;4.07;;;;;;;26.83;53.42;100066.09;5068761;28;20053;-63
2023/08/01 07:53:22;;;;;;;5.10;4.25;;;;;;;26.84;53.58;100059.63;5069626;28;20045;-63
2023/08/01 07:55:51;;;;;;;7.28;4.30;;;;;;;26.85;53.62;100056.69;5067299;28;20087;-63
2023/08/01 07:58:19;;;;;;;5.75;4.43;;;;;;;26.86;54.10;100047.53;5063140;28;20063;-63
2023/08/01 08:00:46;;;;;;;7.53;4.35;;;;;;;26.86;54.04;100044.81;5072281;28;20047;-63
2023/08/01 08:03:13;;;;;;;9.40;4.30;;;;;;;26.89;54.35;100043.56;5071625;28;20053;-63
2023/08/01 08:05:41;;;;;;;5.25;4.10;;;;;;;26.91;54.42;100052.34;5076115;28;20044;-64
2023/08/01 08:08:08;;;;;;;6.65;4.70;;;;;;;26.93;54.61;100044.00;5073882;28;20056;-63
2023/08/01 08:10:35;;;;;;;4.90;3.53;;;;;;;26.94;54.30;100046.53;5076599;28;20041;-63
2023/08/01 08:13:03;;;;;;;6.00;3.55;;;;;;;26.96;54.48;100051.75;5076164;28;20063;-64
2023/08/01 08:15:34;;;;;;;7.70;4.43;;;;;;;26.97;54.71;100050.69;5073683;28;20044;-63
2023/08/01 08:18:04;;;;;;;6.25;3.75;;;;;;;26.99;55.00;100054.91;5067271;28;20048;-63
2023/08/01 08:20:40;;;;;;;8.65;4.32;;;;;;;27.01;55.16;100058.25;5076128;28;20055;-63
2023/08/01 08:23:07;;;;;;;5.25;4.00;;;;;;;27.02;55.49;100046.38;5075470;28;20045;-63
2023/08/01 08:25:34;;;;;;;5.82;4.18;;;;;;;27.03;55.13;100039.88;5064070;28;20047;-65
2023/08/01 08:28:02;;;;;;;4.63;3.58;;;;;;;27.05;55.42;100036.94;5073146;28;20415;-57
2023/08/01 08:30:30;;;;;;;5.13;4.05;;;;;;;27.07;54.99;100053.91;5075840;28;20052;-57
2023/08/01 08:32:58;;;;;;;5.88;4.53;;;;;;;27.05;55.50;100045.94;5072728;28;20051;-57
2023/08/01 08:35:26;;;;;;;6.60;5.00;;;;;;;27.06;55.66;100050.34;5063680;28;20055;-57
2023/08/01 08:37:53;;;;;;;5.18;4.38;;;;;;;27.06;55.94;100055.78;5072945;28;20053;-63
2023/08/01 08:40:20;;;;;;;6.43;4.68;;;;;;;27.06;55.85;100058.50;5075784;28;20048;-64
2023/08/01 08:42:49;;;;;;;7.18;4.72;;;;;;;27.08;56.22;100061.00;5060789;28;20052;-63
2023/08/01 08:45:19;;;;;;;6.45;4.75;;;;;;;27.09;56.86;100043.66;5061022;28;20055;-64
2023/08/01 08:47:55;;;;;;;5.55;4.45;;;;;;;27.10;56.46;100032.63;5075865;28;20107;-63
2023/08/01 08:50:23;;;;;;;9.93;5.07;;;;;;;27.13;56.63;100034.09;5070937;28;20052;-63
2023/08/01 08:52:52;;;;;;;7.18;5.95;;;;;;;27.16;56.87;100032.84;5073722;28;20036;-64
2023/08/01 08:55:22;;;;;;;5.70;4.88;;;;;;;27.18;57.14;100034.31;5072813;28;20077;-63
2023/08/01 08:57:53;;;;;;;7.22;5.88;;;;;;;27.20;57.12;100029.53;5075264;28;20059;-57
2023/08/01 09:00:21;;;;;;;7.93;5.75;;;;;;;27.20;57.04;100034.97;5072666;28;20044;-57
2023/08/01 09:02:49;;;;;;;6.10;5.38;;;;;;;27.21;57.09;100033.91;5071661;28;20041;-57
2023/08/01 09:05:17;;;;;;;8.02;6.43;;;;;;;27.21;56.89;100027.66;5075180;28;20389;-57
2023/08/01 09:07:48;;;;;;;9.35;5.40;;;;;;;27.22;56.80;100024.72;5072389;28;20056;-62
2023/08/01 09:10:16;;;;;;;6.35;5.75;;;;;;;27.22;56.96;100013.84;5071711;28;20049;-62
2023/08/01 09:12:43;;;;;;;6.63;5.65;;;;;;;27.25;56.76;100008.00;5062450;28;20411;-62
2023/08/01 09:15:12;;;;;;;8.32;5.60;;;;;;;27.24;56.40;100003.63;5070996;28;20045;-62
2023/08/01 09:17:56;;;;;;;10.68;7.00;;;;;;;27.27;56.48;100007.81;5074892;28;20053;-62
2023/08/01 09:20:23;;;;;;;8.57;6.72;;;;;;;27.28;56.66;100007.59;5073300;28;20044;-62
2023/08/01 09:22:51;;;;;;;7.50;6.32;;;;;;;27.28;56.33;100004.06;5075134;28;20048;-62
2023/08/01 09:25:18;;;;;;;8.43;6.70;;;;;;;27.28;56.47;100007.59;5072386;28;20049;-62
2023/08/01 09:27:45;;;;;;;7.72;6.30;;;;;;;27.30;56.46;100008.22;5073290;28;20044;-57
2023/08/01 09:30:16;;;;;;;8.45;6.47;;;;;;;27.30;56.57;100010.09;5073067;28;20044;-57
2023/08/01 09:32:57;;;;;;;8.43;5.97;;;;;;;27.32;56.19;100010.75;5071963;28;20063;-57
2023/08/01 09:35:24;;;;;;;6.90;6.20;;;;;;;27.34;56.52;100003.22;5074351;28;20053;-57
2023/08/01 09:37:52;;;;;;;6.93;5.82;;;;;;;27.34;56.42;99998.63;5071525;28;20063;-57
2023/08/01 09:40:19;;;;;;;6.60;5.88;;;;;;;27.37;56.11;99994.66;5062458;28;20079;-57
2023/08/01 09:42:47;;;;;;;6.65;5.95;;;;;;;27.39;56.17;99994.44;5071526;28;20530;-57
2023/08/01 09:45:16;;;;;;;7.70;5.50;;;;;;;27.40;56.50;99985.28;5074345;28;20122;-58
2023/08/01 09:47:45;;;;;;;7.38;5.38;;;;;;;27.43;57.06;99993.84;5071211;28;20041;-58
2023/08/01 09:50:22;;;;;;;7.47;5.70;;;;;;;27.43;57.52;99988.44;5071695;28;20492;-57
2023/08/01 09:52:52;;;;;;;8.40;5.25;;;;;;;27.43;57.64;99976.69;5074607;28;20045;-57
2023/08/01 09:55:33;;;;;;;6.13;5.18;;;;;;;27.44;57.22;99971.06;5071452;28;20058;-57
2023/08/01 09:58:00;;;;;;;5.43;4.75;;;;;;;27.44;57.75;99960.19;5062344;28;20484;-60
2023/08/01 10:00:29;;;;;;;5.45;4.88;;;;;;;27.45;57.98;99963.75;5075196;28;20055;-61
2023/08/01 10:03:01;;;;;;;6.68;4.63;;;;;;;27.44;57.71;99965.63;5074667;28;20041;-61
2023/08/01 10:05:34;;;;;;;6.43;4.28;;;;;;;27.44;57.53;99960.19;5058570;28;20052;-58
2023/08/01 10:08:02;;;;;;;6.05;4.82;;;;;;;27.44;57.76;99956.63;5071680;28;20059;-58
2023/08/01 10:10:30;;;;;;;6.68;5.03;;;;;;;27.44;57.23;99960.19;5074280;28;20052;-58
2023/08/01 10:12:57;;;;;;;5.55;4.10;;;;;;;27.45;57.03;99958.31;5071237;28;20041;-58
2023/08/01 10:15:27;;;;;;;5.72;3.78;;;;;;;27.45;57.05;99948.25;5069344;28;20052;-58
2023/08/01 10:17:55;;;;;;;4.22;3.65;;;;;;;27.44;57.24;99943.88;5074145;28;20056;-58
2023/08/01 10:20:23;;;;;;;5.55;3.88;;;;;;;27.45;57.03;99937.38;5071460;28;20055;-58
2023/08/01 10:22:51;;;;;;;5.25;3.97;;;;;;;27.47;57.22;99939.91;5070780;28;20048;-58
2023/08/01 10:25:21;;;;;;;4.18;3.55;;;;;;;27.48;57.56;99930.72;5072379;28;20056;-58
2023/08/01 10:28:03;;;;;;;6.95;3.90;;;;;;;27.47;57.97;99921.72;5069903;28;20048;-58
2023/08/01 10:30:30;;;;;;;5.47;3.90;;;;;;;27.47;58.34;99916.28;5073615;28;20059;-58
2023/08/01 10:32:59;;;;;;;5.93;4.35;;;;;;;27.47;58.35;99919.00;5070674;28;20041;-58
2023/08/01 10:35:38;;;;;;;5.00;4.00;;;;;;;27.48;58.51;99923.38;5071052;28;20408;-58
2023/08/01 10:38:11;;;;;;;4.93;4.20;;;;;;;27.48;58.36;99911.69;5073983;28;20055;-58
2023/08/01 10:40:41;;;;;;;5.70;4.10;;;;;;;27.47;58.02;99902.69;5071142;28;20052;-58
2023/08/01 10:43:22;;;;;;;4.15;3.75;;;;;;;27.47;58.30;99891.81;5070057;28;20519;-58
2023/08/01 10:46:04;;;;;;;;;;;;;;;27.46;58.29;99890.13;5072770;28;20047;-58
2023/08/01 10:48:31;;;;;;;4.57;4.07;;;;;;;27.48;58.58;99904.38;5070865;28;19927;-58
2023/08/01 10:50:59;;;;;;;4.68;3.92;;;;;;;27.49;58.97;99905.19;5069858;28;20049;-58
2023/08/01 10:53:38;;;;;;;5.07;3.67;;;;;;;27.51;58.35;99903.13;5073439;28;20047;-58
2023/08/01 10:56:16;;;;;;;4.40;3.85;;;;;;;27.51;58.72;99901.25;5070817;28;20052;-58
2023/08/01 10:58:43;;;;;;;5.10;3.90;;;;;;;27.51;58.70;99893.09;5069891;28;20045;-62
2023/08/01 11:01:11;;;;;;;4.85;3.92;;;;;;;27.53;57.90;99890.97;5073164;28;20075;-59
2023/08/01 11:03:39;;;;;;;4.40;3.58;;;;;;;27.56;56.70;99896.00;5061514;28;20047;-58
2023/08/01 11:06:07;;;;;;;6.60;3.85;;;;;;;27.61;56.34;99911.69;5067403;28;20051;-59
2023/08/01 11:08:38;;;;;;;5.95;3.92;;;;;;;27.64;56.16;99916.72;5065373;28;20048;-60
2023/08/01 11:11:10;;;;;;;4.65;3.42;;;;;;;27.68;56.27;99925.28;5069822;28;20046;-58
2023/08/01 11:13:40;;;;;;;3.78;3.15;;;;;;;27.70;56.08;99896.00;5057649;28;20049;-59
2023/08/01 11:16:12;;;;;;;4.53;3.45;;;;;;;27.73;55.53;99881.97;5056191;28;20048;-59
2023/08/01 11:18:43;;;;;;;6.45;3.33;;;;;;;27.75;55.95;99886.22;5065047;28;20045;-61
2023/08/01 11:21:10;;;;;;;4.57;3.42;;;;;;;27.74;56.18;99875.53;5063521;28;20056;-55
2023/08/01 11:23:38;;;;;;;5.55;3.80;;;;;;;27.74;56.79;99875.53;5060138;28;20072;-56
2023/08/01 11:26:08;;;;;;;3.92;3.20;;;;;;;27.72;57.41;99872.16;5060880;28;20049;-56
2023/08/01 11:28:36;;;;;;;4.32;3.20;;;;;;;27.69;57.98;99873.41;5058619;28;20045;-56
2023/08/01 11:31:13;;;;;;;4.32;3.22;;;;;;;27.69;57.95;99867.97;5058598;28;20052;-55
2023/08/01 11:33:41;;;;;;;4.30;3.03;;;;;;;27.68;57.72;99860.03;5068767;28;20040;-56